Time;durP1;ratioP1;P1;durP2;ratioP2;P2;SDS_P1;SDS_P2;PMS_P1;PMS_P2;Temp;Humidity;BMP_temperature;BMP_pressure;BME280_temperature;BME280_humidity;BME280_pressure;Samples;Min_cycle;Max_cycle;Signal;HPM_P1;HPM_P2
2022/11/27 00:01:25;;;;;;;;;;;;;;;5.13;62.28;96553.56;5071036;28;20016;-64
2022/11/27 00:03:50;;;;;;;;;;;;;;;5.11;62.52;96553.78;5070663;28;20097;-64
2022/11/27 00:06:17;;;;;;;;;;;;;;;5.09;62.32;96555.88;5070330;28;20097;-63
2022/11/27 00:08:43;;;;;;;;;;;;;;;5.06;62.41;96556.31;5068923;28;20528;-64
2022/11/27 00:11:10;;;;;;;;;;;;;;;5.07;62.64;96557.94;5069666;28;20422;-63
2022/11/27 00:13:35;;;;;;;;;;;;;;;5.13;62.92;96557.00;5070681;28;20012;-64
2022/11/27 00:16:01;;;;;;;;;;;;;;;5.11;62.76;96564.34;5070290;28;20005;-64
2022/11/27 00:18:27;;;;;;;;;;;;;;;5.13;62.57;96567.56;5070674;28;20547;-63
2022/11/27 00:20:53;;;;;;;;;;;;;;;5.10;62.78;96565.38;5070514;28;20017;-64
2022/11/27 00:23:18;;;;;;;;;;;;;;;5.07;62.46;96565.06;5069191;28;20020;-63
2022/11/27 00:25:50;;;;;;;;;;;;;;;5.04;62.87;96568.16;5068591;28;20009;-63
2022/11/27 00:28:15;;;;;;;;;;;;;;;5.04;62.46;96574.22;5070435;28;20020;-63
2022/11/27 00:30:41;;;;;;;;;;;;;;;5.01;62.38;96560.69;5070457;28;20408;-63
2022/11/27 00:33:06;;;;;;;;;;;;;;;4.97;61.91;96568.28;5070222;28;21010;-64
2022/11/27 00:35:31;;;;;;;;;;;;;;;4.94;62.31;96561.63;5067896;28;20068;-65
2022/11/27 00:37:57;;;;;;;;;;;;;;;4.98;62.41;96559.34;5068311;28;20013;-64
2022/11/27 00:40:22;;;;;;;;;;;;;;;4.99;62.42;96549.59;5061251;28;20026;-64
2022/11/27 00:42:47;;;;;;;;;;;;;;;4.87;62.64;96550.44;5069887;28;20484;-64
2022/11/27 00:45:13;;;;;;;;;;;;;;;4.90;62.61;96535.97;5069689;28;20017;-65
2022/11/27 00:47:38;;;;;;;;;;;;;;;4.91;62.80;96537.56;5070064;28;20012;-65
2022/11/27 00:50:03;;;;;;;;;;;;;;;4.87;62.44;96525.91;5068758;28;20045;-66
2022/11/27 00:52:28;;;;;;;;;;;;;;;4.84;62.70;96529.00;5070090;28;20009;-66
2022/11/27 00:54:54;;;;;;;;;;;;;;;4.81;62.50;96532.09;5069331;28;20075;-65
2022/11/27 00:57:19;;;;;;;;;;;;;;;4.79;62.17;96537.59;5065904;28;20006;-65
2022/11/27 00:59:44;;;;;;;;;;;;;;;4.78;62.22;96532.56;5048564;28;20428;-65
2022/11/27 01:02:09;;;;;;;;;;;;;;;4.76;62.73;96531.97;5049925;28;20478;-65
2022/11/27 01:04:35;;;;;;;;;;;;;;;4.77;62.20;96531.78;5058615;28;20529;-65
2022/11/27 01:07:00;;;;;;;;;;;;;;;4.67;62.30;96519.19;5068439;28;20014;-65
2022/11/27 01:09:25;;;;;;;;;;;;;;;4.63;62.42;96515.41;5070044;28;20004;-65
2022/11/27 01:11:50;;;;;;;;;;;;;;;4.62;62.81;96519.06;5069774;28;20040;-64
2022/11/27 01:14:16;;;;;;;;;;;;;;;4.72;62.56;96512.41;5067004;28;20485;-64
2022/11/27 01:16:41;;;;;;;;;;;;;;;4.72;62.62;96517.69;5068107;28;20013;-65
2022/11/27 01:19:08;;;;;;;;;;;;;;;4.74;62.42;96513.78;5068232;28;20066;-65
2022/11/27 01:21:34;;;;;;;;;;;;;;;4.71;62.28;96514.25;5068529;28;20021;-64
2022/11/27 01:24:00;;;;;;;;;;;;;;;4.69;62.11;96509.19;5066903;28;20366;-64
2022/11/27 01:26:26;;;;;;;;;;;;;;;4.68;62.13;96515.50;5069119;28;20005;-64
2022/11/27 01:28:52;;;;;;;;;;;;;;;4.44;63.00;96504.19;5069396;28;20696;-65
2022/11/27 01:31:18;;;;;;;;;;;;;;;4.48;63.49;96501.09;5068149;28;20021;-63
2022/11/27 01:33:44;;;;;;;;;;;;;;;4.50;63.31;96507.72;5069707;28;20010;-63
2022/11/27 01:36:10;;;;;;;;;;;;;;;4.53;63.42;96503.84;5067353;28;20020;-65
2022/11/27 01:38:36;;;;;;;;;;;;;;;4.52;63.42;96503.06;5069576;28;20062;-64
2022/11/27 01:41:03;;;;;;;;;;;;;;;4.55;63.53;96502.56;5068002;28;20123;-65
2022/11/27 01:43:48;;;;;;;;;;;;;;;4.59;63.65;96492.38;5069511;28;20385;-65
2022/11/27 01:46:32;;;;;;;;;;;;;;;4.62;63.15;96491.91;5069219;28;20016;-65
2022/11/27 01:49:09;;;;;;;;;;;;;;;4.65;63.21;96502.78;5066470;28;20024;-64
2022/11/27 01:51:41;;;;;;;;;;;;;;;4.64;63.12;96495.91;5068068;28;20066;-65
2022/11/27 01:54:08;;;;;;;;;;;;;;;4.67;62.99;96495.47;5069490;28;20456;-64
2022/11/27 01:56:33;;;;;;;;;;;;;;;4.64;62.76;96501.19;5067465;28;20017;-65
2022/11/27 01:58:59;;;;;;;;;;;;;;;4.65;62.83;96502.78;5067925;28;20477;-65
2022/11/27 02:01:25;;;;;;;;;;;;;;;4.65;62.98;96500.16;5068303;28;20497;-64
2022/11/27 02:03:51;;;;;;;;;;;;;;;4.65;62.74;96489.59;5067758;28;20013;-64
2022/11/27 02:06:16;;;;;;;;;;;;;;;4.67;62.73;96497.28;5067653;28;20048;-64
2022/11/27 02:08:41;;;;;;;;;;;;;;;4.69;62.69;96497.84;5067999;28;20057;-64
2022/11/27 02:11:22;;;;;;;;;;;;;;;4.67;62.59;96484.91;5067975;28;20013;-64
2022/11/27 02:13:51;;;;;;;;;;;;;;;4.64;62.69;96482.72;5072805;28;20005;-65
2022/11/27 02:16:22;;;;;;;;;;;;;;;4.62;62.65;96484.00;5072373;28;20005;-65
2022/11/27 02:18:57;;;;;;;;;;;;;;;4.62;62.51;96476.91;5071273;28;20013;-65
2022/11/27 02:21:41;;;;;;;;;;;;;;;4.55;62.34;96478.84;5073024;28;20012;-64
2022/11/27 02:24:09;;;;;;;;;;;;;;;4.53;62.52;96472.22;5071422;28;20009;-64
2022/11/27 02:26:49;;;;;;;;;;;;;;;4.58;62.59;96469.69;5071370;28;20020;-65
2022/11/27 02:29:18;;;;;;;;;;;;;;;4.58;62.62;96464.44;5072803;28;20005;-64
2022/11/27 02:31:46;;;;;;;;;;;;;;;4.56;62.40;96461.25;5070809;28;20473;-65
2022/11/27 02:34:23;;;;;;;;;;;;;;;4.55;62.70;96443.81;5073038;28;20412;-64
2022/11/27 02:36:52;;;;;;;;;;;;;;;4.54;62.42;96448.28;5070653;28;20021;-64
2022/11/27 02:39:21;;;;;;;;;;;;;;;4.54;62.60;96448.28;5072680;28;20163;-64
2022/11/27 02:41:49;;;;;;;;;;;;;;;4.52;62.34;96446.91;5071135;28;20063;-65
2022/11/27 02:44:15;;;;;;;;;;;;;;;4.47;62.44;96441.56;5071346;28;20009;-65
2022/11/27 02:46:41;;;;;;;;;;;;;;;4.44;62.47;96445.44;5069402;28;20444;-65
2022/11/27 02:49:08;;;;;;;;;;;;;;;4.42;62.48;96442.25;5071231;28;20105;-64
2022/11/27 02:51:40;;;;;;;;;;;;;;;4.43;62.36;96435.94;5072415;28;20470;-65
2022/11/27 02:54:08;;;;;;;;;;;;;;;4.40;62.41;96436.38;5072302;28;20006;-64
2022/11/27 02:56:35;;;;;;;;;;;;;;;4.36;62.46;96424.75;5070706;28;20021;-64
2022/11/27 02:59:03;;;;;;;;;;;;;;;4.34;62.52;96418.88;5070807;28;20032;-64
2022/11/27 03:01:32;;;;;;;;;;;;;;;4.34;62.81;96422.31;5069533;28;20119;-64
2022/11/27 03:03:59;;;;;;;;;;;;;;;4.39;62.93;96417.16;5068907;28;20540;-64
2022/11/27 03:06:28;;;;;;;;;;;;;;;4.42;62.93;96408.00;5070349;28;20005;-64
2022/11/27 03:09:07;;;;;;;;;;;;;;;4.43;62.78;96404.31;5071983;28;20412;-64
2022/11/27 03:11:33;;;;;;;;;;;;;;;4.40;62.77;96399.50;5070702;28;20369;-64
2022/11/27 03:14:02;;;;;;;;;;;;;;;4.40;63.00;96395.06;5068973;28;20095;-64
2022/11/27 03:16:38;;;;;;;;;;;;;;;4.33;62.83;96396.22;5070159;28;20005;-64
2022/11/27 03:19:06;;;;;;;;;;;;;;;4.32;63.43;96405.97;5070426;28;20044;-64
2022/11/27 03:21:39;;;;;;;;;;;;;;;4.30;62.74;96400.13;5071726;28;20063;-64
2022/11/27 03:24:05;;;;;;;;;;;;;;;4.28;62.80;96401.38;5070775;28;20013;-64
2022/11/27 03:26:30;;;;;;;;;;;;;;;4.23;62.89;96398.66;5071239;28;20489;-64
2022/11/27 03:28:57;;;;;;;;;;;;;;;4.22;62.93;96397.06;5069453;28;20013;-64
2022/11/27 03:31:23;;;;;;;;;;;;;;;4.22;62.92;96391.78;5071438;28;20469;-64
2022/11/27 03:33:49;;;;;;;;;;;;;;;4.19;62.75;96385.13;5070238;28;20024;-65
2022/11/27 03:36:16;;;;;;;;;;;;;;;4.22;62.98;96389.16;5069897;28;20092;-64
2022/11/27 03:38:42;;;;;;;;;;;;;;;4.21;62.90;96380.44;5071315;28;20010;-64
2022/11/27 03:41:12;;;;;;;;;;;;;;;4.21;63.01;96380.44;5071138;28;20018;-65
2022/11/27 03:43:45;;;;;;;;;;;;;;;4.18;62.91;96376.44;5068755;28;20040;-65
2022/11/27 03:46:23;;;;;;;;;;;;;;;4.19;62.82;96377.22;5070945;28;20005;-64
2022/11/27 03:48:57;;;;;;;;;;;;;;;4.17;63.17;96368.78;5050971;28;20025;-64
2022/11/27 03:51:37;;;;;;;;;;;;;;;4.16;63.05;96373.25;5048165;28;20009;-65
2022/11/27 03:54:21;;;;;;;;;;;;;;;4.14;62.73;96369.22;5050685;28;20009;-65
2022/11/27 03:56:46;;;;;;;;;;;;;;;4.11;62.77;96367.09;5070670;28;20481;-63
2022/11/27 03:59:32;;;;;;;;;;;;;;;4.09;63.09;96372.56;5069963;28;20079;-64
2022/11/27 04:01:58;;;;;;;;;;;;;;;4.08;63.00;96359.63;5068201;28;20013;-64
2022/11/27 04:04:24;;;;;;;;;;;;;;;4.08;63.09;96360.44;5069734;28;20014;-63
2022/11/27 04:06:49;;;;;;;;;;;;;;;4.08;62.89;96362.25;5070160;28;20009;-64
2022/11/27 04:09:14;;;;;;;;;;;;;;;4.09;63.22;96364.66;5069750;28;20021;-64
2022/11/27 04:11:39;;;;;;;;;;;;;;;4.10;63.16;96365.47;5070772;28;20005;-64
2022/11/27 04:14:05;;;;;;;;;;;;;;;4.11;63.22;96364.44;5070469;28;20015;-64
2022/11/27 04:16:30;;;;;;;;;;;;;;;4.09;62.97;96369.94;5070086;28;20092;-64
2022/11/27 04:18:55;;;;;;;;;;;;;;;4.11;62.79;96369.72;5069376;28;20108;-64
2022/11/27 04:21:20;;;;;;;;;;;;;;;4.09;62.79;96374.38;5070485;28;20013;-64
2022/11/27 04:23:45;;;;;;;;;;;;;;;4.07;62.71;96366.72;5067719;28;20036;-64
2022/11/27 04:26:11;;;;;;;;;;;;;;;4.02;62.85;96368.47;5069966;28;20010;-64
2022/11/27 04:28:36;;;;;;;;;;;;;;;4.04;63.02;96369.03;5070677;28;20005;-64
2022/11/27 04:31:01;;;;;;;;;;;;;;;4.03;63.01;96376.13;5068880;28;20049;-63
2022/11/27 04:33:26;;;;;;;;;;;;;;;3.97;63.13;96368.34;5070583;28;20009;-64
2022/11/27 04:35:52;;;;;;;;;;;;;;;3.99;62.87;96371.56;5067595;28;20067;-64
2022/11/27 04:38:17;;;;;;;;;;;;;;;4.00;63.03;96363.44;5070782;28;20401;-64
2022/11/27 04:40:42;;;;;;;;;;;;;;;4.02;62.58;96361.38;5068923;28;20063;-64
2022/11/27 04:43:08;;;;;;;;;;;;;;;4.05;62.75;96362.75;5068788;28;20536;-64
2022/11/27 04:45:33;;;;;;;;;;;;;;;4.03;62.91;96362.97;5069031;28;20017;-63
2022/11/27 04:47:58;;;;;;;;;;;;;;;4.06;62.94;96366.97;5068809;28;20191;-63
2022/11/27 04:50:23;;;;;;;;;;;;;;;4.02;62.97;96371.91;5068838;28;20048;-64
2022/11/27 04:52:49;;;;;;;;;;;;;;;4.02;62.97;96368.47;5068343;28;20010;-63
2022/11/27 04:55:14;;;;;;;;;;;;;;;4.06;62.94;96369.59;5069862;28;20013;-64
2022/11/27 04:57:39;;;;;;;;;;;;;;;4.00;63.05;96371.34;5070096;28;20012;-64
2022/11/27 05:00:05;;;;;;;;;;;;;;;3.98;62.96;96376.00;5069723;28;20503;-64
2022/11/27 05:02:30;;;;;;;;;;;;;;;3.95;63.14;96376.50;5070081;28;20005;-64
2022/11/27 05:04:55;;;;;;;;;;;;;;;3.96;62.96;96377.28;5068057;28;20028;-64
2022/11/27 05:07:20;;;;;;;;;;;;;;;3.94;62.73;96371.44;5069776;28;20079;-64
2022/11/27 05:09:46;;;;;;;;;;;;;;;3.92;63.00;96361.94;5069984;28;20001;-64
2022/11/27 05:12:11;;;;;;;;;;;;;;;3.90;62.72;96361.41;5068458;28;20015;-64
2022/11/27 05:14:36;;;;;;;;;;;;;;;3.89;62.86;96365.06;5068729;28;20015;-64
2022/11/27 05:17:02;;;;;;;;;;;;;;;3.88;62.89;96360.00;5067646;28;20059;-64
2022/11/27 05:19:28;;;;;;;;;;;;;;;3.86;62.78;96370.78;5068611;28;20013;-64
2022/11/27 05:21:54;;;;;;;;;;;;;;;3.86;62.86;96362.88;5069898;28;20486;-64
2022/11/27 05:24:19;;;;;;;;;;;;;;;3.86;62.68;96362.09;5068339;28;20016;-64
2022/11/27 05:26:45;;;;;;;;;;;;;;;3.83;62.74;96352.00;5068437;28;20120;-64
2022/11/27 05:29:11;;;;;;;;;;;;;;;3.74;62.75;96361.31;5068167;28;20067;-64
2022/11/27 05:31:37;;;;;;;;;;;;;;;3.60;63.03;96366.78;5069821;28;20013;-64
2022/11/27 05:34:02;;;;;;;;;;;;;;;3.44;64.07;96374.59;5066286;28;20062;-64
2022/11/27 05:36:27;;;;;;;;;;;;;;;3.72;63.28;96365.97;5067798;28;20057;-64
2022/11/27 05:38:53;;;;;;;;;;;;;;;3.74;63.31;96369.19;5067226;28;20017;-64
2022/11/27 05:41:18;;;;;;;;;;;;;;;3.73;63.14;96370.22;5068410;28;20116;-64
2022/11/27 05:43:43;;;;;;;;;;;;;;;3.72;63.08;96360.72;5068700;28;20107;-64
2022/11/27 05:46:11;;;;;;;;;;;;;;;3.81;63.87;96360.16;5067860;28;20009;-64
2022/11/27 05:48:37;;;;;;;;;;;;;;;3.85;63.40;96357.84;5073264;28;20005;-64
2022/11/27 05:51:02;;;;;;;;;;;;;;;3.86;63.03;96357.63;5072000;28;20014;-64
2022/11/27 05:53:28;;;;;;;;;;;;;;;3.84;62.92;96354.44;5073537;28;20009;-65
2022/11/27 05:55:53;;;;;;;;;;;;;;;3.81;62.71;96351.44;5071622;28;20481;-64
2022/11/27 05:58:18;;;;;;;;;;;;;;;3.78;62.54;96350.06;5072056;28;20009;-63
2022/11/27 06:00:44;;;;;;;;;;;;;;;3.74;62.43;96358.69;5073324;28;20108;-65
2022/11/27 06:03:09;;;;;;;;;;;;;;;3.69;62.21;96351.47;5071963;28;20009;-64
2022/11/27 06:05:38;;;;;;;;;;;;;;;3.68;62.36;96355.09;5072850;28;20461;-64
2022/11/27 06:08:04;;;;;;;;;;;;;;;3.65;62.37;96353.75;5071568;28;20012;-64
2022/11/27 06:10:29;;;;;;;;;;;;;;;3.64;63.06;96346.91;5070089;28;20107;-63
2022/11/27 06:12:54;;;;;;;;;;;;;;;3.63;62.55;96344.47;5072934;28;20012;-64
2022/11/27 06:15:20;;;;;;;;;;;;;;;3.60;62.35;96343.13;5071351;28;20124;-64
2022/11/27 06:17:47;;;;;;;;;;;;;;;3.55;62.60;96340.38;5071843;28;20456;-63
2022/11/27 06:20:12;;;;;;;;;;;;;;;3.55;62.54;96340.38;5071573;28;20066;-64
2022/11/27 06:22:37;;;;;;;;;;;;;;;3.56;62.69;96339.34;5072751;28;20421;-63
2022/11/27 06:25:03;;;;;;;;;;;;;;;3.32;63.79;96335.91;5070800;28;20048;-64
2022/11/27 06:27:31;;;;;;;;;;;;;;;3.22;64.41;96342.75;5071486;28;20059;-64
2022/11/27 06:29:56;;;;;;;;;;;;;;;3.45;63.62;96342.78;5073100;28;20005;-64
2022/11/27 06:32:22;;;;;;;;;;;;;;;3.51;63.04;96346.31;5072395;28;20026;-64
2022/11/27 06:34:47;;;;;;;;;;;;;;;3.61;62.89;96349.19;5072104;28;20055;-64
2022/11/27 06:37:12;;;;;;;;;;;;;;;3.63;62.66;96342.66;5072327;28;20529;-63
2022/11/27 06:39:37;;;;;;;;;;;;;;;3.68;62.76;96341.94;5068787;28;20475;-64
2022/11/27 06:42:03;;;;;;;;;;;;;;;3.70;62.46;96347.00;5071108;28;20021;-64
2022/11/27 06:44:28;;;;;;;;;;;;;;;3.73;62.47;96343.91;5071171;28;20016;-64
2022/11/27 06:46:53;;;;;;;;;;;;;;;3.69;62.52;96340.16;5070508;28;20025;-64
2022/11/27 06:49:19;;;;;;;;;;;;;;;3.65;62.49;96330.06;5069641;28;20057;-64
2022/11/27 06:51:45;;;;;;;;;;;;;;;3.67;62.17;96331.66;5071121;28;20035;-64
2022/11/27 06:54:10;;;;;;;;;;;;;;;3.70;62.05;96331.22;5072189;28;20051;-64
2022/11/27 06:56:35;;;;;;;;;;;;;;;3.71;62.06;96325.72;5071826;28;20027;-63
2022/11/27 06:59:01;;;;;;;;;;;;;;;3.75;62.00;96328.69;5068753;28;20085;-64
2022/11/27 07:01:27;;;;;;;;;;;;;;;3.78;61.77;96318.47;5072245;28;20014;-64
2022/11/27 07:03:52;;;;;;;;;;;;;;;3.81;62.07;96327.75;5070661;28;20462;-64
2022/11/27 07:06:18;;;;;;;;;;;;;;;3.85;62.00;96329.69;5070391;28;20013;-64
2022/11/27 07:08:44;;;;;;;;;;;;;;;3.87;61.75;96332.09;5072076;28;20071;-64
2022/11/27 07:11:11;;;;;;;;;;;;;;;3.91;61.64;96325.34;5068991;28;20741;-64
2022/11/27 07:13:36;;;;;;;;;;;;;;;3.96;61.48;96329.91;5070585;28;20040;-64
2022/11/27 07:16:03;;;;;;;;;;;;;;;3.96;61.31;96329.91;5069788;28;20056;-64
2022/11/27 07:18:29;;;;;;;;;;;;;;;3.97;61.35;96324.41;5071713;28;20435;-64
2022/11/27 07:20:55;;;;;;;;;;;;;;;4.01;61.50;96322.13;5071675;28;20059;-64
2022/11/27 07:23:20;;;;;;;;;;;;;;;4.07;61.58;96326.44;5069436;28;20010;-64
2022/11/27 07:25:45;;;;;;;;;;;;;;;4.11;61.32;96320.47;5050506;28;20010;-64
2022/11/27 07:28:10;;;;;;;;;;;;;;;4.16;60.77;96315.31;5050491;28;20010;-64
2022/11/27 07:30:36;;;;;;;;;;;;;;;4.23;61.25;96322.28;5050508;28;20006;-64
2022/11/27 07:33:01;;;;;;;;;;;;;;;4.29;61.32;96321.31;5058931;28;20606;-64
2022/11/27 07:35:26;;;;;;;;;;;;;;;4.37;61.69;96320.97;5071303;28;20083;-64
2022/11/27 07:37:51;;;;;;;;;;;;;;;4.35;62.07;96323.00;5071407;28;20051;-64
2022/11/27 07:40:17;;;;;;;;;;;;;;;4.41;62.16;96324.72;5071518;28;20010;-64
2022/11/27 07:42:42;;;;;;;;;;;;;;;4.40;62.53;96315.22;5070211;28;20108;-65
2022/11/27 07:45:08;;;;;;;;;;;;;;;4.43;62.34;96320.03;5068436;28;20009;-64
2022/11/27 07:47:33;;;;;;;;;;;;;;;4.63;62.10;96316.94;5070030;28;20013;-65
2022/11/27 07:49:59;;;;;;;;;;;;;;;4.72;62.18;96301.56;5071421;28;20017;-64
2022/11/27 07:52:24;;;;;;;;;;;;;;;4.79;61.77;96300.34;5070171;28;20059;-64
2022/11/27 07:54:49;;;;;;;;;;;;;;;4.87;61.58;96299.97;5055899;28;20370;-64
2022/11/27 07:57:15;;;;;;;;;;;;;;;4.95;61.57;96302.19;5051210;28;20001;-65
2022/11/27 07:59:40;;;;;;;;;;;;;;;5.04;61.42;96294.69;5049986;28;20013;-65
2022/11/27 08:02:05;;;;;;;;;;;;;;;5.10;61.37;96300.84;5050914;28;20057;-64
2022/11/27 08:04:30;;;;;;;;;;;;;;;5.12;61.71;96293.50;5050776;28;20006;-64
2022/11/27 08:06:57;;;;;;;;;;;;;;;5.21;61.75;96295.47;5061421;28;20018;-65
2022/11/27 08:09:22;;;;;;;;;;;;;;;5.26;61.29;96301.88;5070223;28;20005;-65
2022/11/27 08:11:47;;;;;;;;;;;;;;;5.33;61.35;96294.59;5070777;28;20051;-64
2022/11/27 08:14:13;;;;;;;;;;;;;;;5.40;61.33;96292.59;5069371;28;20057;-64
2022/11/27 08:16:38;;;;;;;;;;;;;;;5.51;60.60;96289.03;5070411;28;20086;-65
2022/11/27 08:19:03;;;;;;;;;;;;;;;5.59;60.97;96296.56;5069290;28;20013;-64
2022/11/27 08:21:29;;;;;;;;;;;;;;;5.64;60.90;96286.06;5070755;28;20045;-65
2022/11/27 08:23:55;;;;;;;;;;;;;;;5.69;60.80;96280.84;5070590;28;20005;-65
2022/11/27 08:26:20;;;;;;;;;;;;;;;5.72;60.93;96280.34;5068916;28;20009;-64
2022/11/27 08:28:46;;;;;;;;;;;;;;;5.77;60.25;96276.19;5070568;28;20051;-64
2022/11/27 08:31:12;;;;;;;;;;;;;;;5.82;60.06;96278.88;5068902;28;20164;-64
2022/11/27 08:33:37;;;;;;;;;;;;;;;5.92;60.46;96279.03;5068582;28;20013;-65
2022/11/27 08:36:03;;;;;;;;;;;;;;;5.94;59.70;96277.75;5068436;28;20017;-64
2022/11/27 08:38:28;;;;;;;;;;;;;;;6.03;59.87;96275.47;5070275;28;20005;-64
2022/11/27 08:40:57;;;;;;;;;;;;;;;6.11;60.09;96277.69;5068879;28;20014;-65
2022/11/27 08:43:23;;;;;;;;;;;;;;;6.14;59.93;96271.91;5070704;28;20005;-64
2022/11/27 08:45:48;;;;;;;;;;;;;;;6.14;59.83;96279.84;5068279;28;20023;-65
2022/11/27 08:48:13;;;;;;;;;;;;;;;6.20;59.94;96289.41;5070308;28;20090;-64
2022/11/27 08:50:39;;;;;;;;;;;;;;;6.25;59.98;96289.47;5070307;28;20062;-65
2022/11/27 08:53:04;;;;;;;;;;;;;;;6.36;60.02;96284.28;5069971;28;20063;-64
2022/11/27 08:55:29;;;;;;;;;;;;;;;6.44;59.80;96275.91;5068871;28;20060;-64
2022/11/27 08:57:54;;;;;;;;;;;;;;;6.49;59.36;96275.94;5069910;28;20099;-64
2022/11/27 09:00:20;;;;;;;;;;;;;;;6.50;58.93;96280.22;5068266;28;20027;-65
2022/11/27 09:02:45;;;;;;;;;;;;;;;6.56;58.81;96273.91;5066534;28;20055;-66
2022/11/27 09:05:10;;;;;;;;;;;;;;;6.61;58.60;96275.81;5056942;28;20009;-64
2022/11/27 09:07:36;;;;;;;;;;;;;;;6.67;58.86;96270.31;5049960;28;20463;-64
2022/11/27 09:10:01;;;;;;;;;;;;;;;6.73;59.15;96265.88;5049740;28;20009;-65
2022/11/27 09:12:27;;;;;;;;;;;;;;;6.76;59.09;96271.47;5049978;28;20408;-64
2022/11/27 09:14:53;;;;;;;;;;;;;;;6.75;58.82;96269.84;5046835;28;20017;-66
2022/11/27 09:17:18;;;;;;;;;;;;;;;6.86;58.95;96275.22;5059890;28;20378;-68
2022/11/27 09:19:43;;;;;;;;;;;;;;;6.90;58.46;96271.03;5051181;28;20012;-68
2022/11/27 09:22:09;;;;;;;;;;;;;;;6.97;58.04;96274.28;5047170;28;20529;-66
2022/11/27 09:24:35;;;;;;;;;;;;;;;6.95;58.75;96263.91;5048414;28;20017;-65
2022/11/27 09:27:00;;;;;;;;;;;;;;;7.04;58.96;96269.53;5047340;28;20381;-63
2022/11/27 09:29:25;;;;;;;;;;;;;;;7.16;59.25;96258.78;5050131;28;20006;-63
2022/11/27 09:31:51;;;;;;;;;;;;;;;7.15;59.60;96260.63;5046558;28;20491;-64
2022/11/27 09:34:17;;;;;;;;;;;;;;;7.23;59.44;96246.94;5058717;28;20014;-64
2022/11/27 09:36:42;;;;;;;;;;;;;;;7.32;60.16;96249.09;5048113;28;20484;-64
2022/11/27 09:39:07;;;;;;;;;;;;;;;7.41;60.36;96244.91;5048705;28;20505;-63
2022/11/27 09:41:46;;;;;;;;;;;;;;;7.44;60.06;96241.75;5047312;28;20390;-66
2022/11/27 09:44:27;;;;;;;;;;;;;;;7.48;60.65;96237.56;5029480;28;20033;-65
2022/11/27 09:46:53;;;;;;;;;;;;;;;7.56;60.36;96234.41;5050221;28;20010;-65
2022/11/27 09:49:28;;;;;;;;;;;;;;;7.58;61.10;96227.00;5049766;28;20091;-65
2022/11/27 09:52:06;;;;;;;;;;;;;;;7.61;60.82;96215.88;5045239;28;20650;-67
2022/11/27 09:55:10;;;;;;;;;;;;;;;7.57;61.19;96220.09;5048280;28;20017;-65
2022/11/27 09:57:37;;;;;;;;;;;;;;;7.62;61.63;96206.88;5005226;28;20360;-64
2022/11/27 10:00:16;;;;;;;;;;;;;;;7.65;61.11;96201.09;4993613;28;20049;-64
2022/11/27 10:02:42;;;;;;;;;;;;;;;7.60;60.54;96192.31;5024383;28;20010;-64
2022/11/27 10:05:14;;;;;;;;;;;;;;;7.64;60.25;96194.19;5046697;28;20025;-63
2022/11/27 10:07:57;;;;;;;;;;;;;;;7.73;60.47;96186.56;5038169;28;20051;-64
2022/11/27 10:10:34;;;;;;;;;;;;;;;7.79;59.90;96198.75;5049113;28;20738;-63
2022/11/27 10:12:59;;;;;;;;;;;;;;;7.85;59.58;96189.78;5050917;28;20410;-63
2022/11/27 10:15:24;;;;;;;;;;;;;;;7.89;59.86;96188.19;5067889;28;20166;-63
2022/11/27 10:18:22;;;;;;;;;;;;;;;7.86;59.32;96186.06;5067991;28;20009;-64
2022/11/27 10:20:53;;;;;;;;;;;;;;;7.53;60.03;96113.94;5034878;28;20075;-65
2022/11/27 10:23:30;;;;;;;;;;;;;;;7.99;59.71;96171.53;5067442;28;20009;-68
2022/11/27 10:26:02;;;;;;;;;;;;;;;8.00;59.43;96162.53;5066100;28;20013;-62
2022/11/27 10:28:35;;;;;;;;;;;;;;;8.11;60.04;96163.34;5047678;28;20103;-63
2022/11/27 10:31:10;;;;;;;;;;;;;;;8.01;59.43;96154.31;5046674;28;20489;-62
2022/11/27 10:33:42;;;;;;;;;;;;;;;7.98;59.63;96148.72;5049684;28;20087;-61
2022/11/27 10:36:20;;;;;;;;;;;;;;;7.97;60.38;96152.44;5049962;28;20014;-62
2022/11/27 10:38:46;;;;;;;;;;;;;;;7.91;59.59;96148.97;5046269;28;20010;-66
2022/11/27 10:41:21;;;;;;;;;;;;;;;8.06;59.73;96150.88;5043141;28;20111;-65
2022/11/27 10:43:48;;;;;;;;;;;;;;;8.12;59.74;96141.06;5051218;28;20014;-66
2022/11/27 10:46:15;;;;;;;;;;;;;;;7.76;58.65;96149.75;5050839;28;20051;-65
2022/11/27 10:48:40;;;;;;;;;;;;;;;7.97;59.27;96136.53;5051128;28;20010;-66
2022/11/27 10:51:12;;;;;;;;;;;;;;;7.99;59.11;96137.88;5051567;28;20013;-63
2022/11/27 10:53:40;;;;;;;;;;;;;;;7.91;58.74;96141.03;5032499;28;20032;-69
2022/11/27 10:56:12;;;;;;;;;;;;;;;8.10;58.15;96141.34;5039597;28;20013;-63
2022/11/27 10:58:44;;;;;;;;;;;;;;;8.22;58.51;96141.09;5061340;28;20017;-63
2022/11/27 11:01:14;;;;;;;;;;;;;;;8.33;58.74;96137.38;5049727;28;20490;-62
2022/11/27 11:03:40;;;;;;;;;;;;;;;8.25;57.85;96127.31;5052082;28;20576;-63
2022/11/27 11:06:07;;;;;;;;;;;;;;;8.38;57.97;96126.00;5056884;28;20009;-63
2022/11/27 11:08:33;;;;;;;;;;;;;;;8.42;57.98;96121.78;5071980;28;20013;-62
2022/11/27 11:11:00;;;;;;;;;;;;;;;8.55;58.35;96113.28;5071011;28;20096;-64
2022/11/27 11:13:29;;;;;;;;;;;;;;;8.65;57.77;96123.06;5072049;28;20096;-62
2022/11/27 11:16:18;;;;;;;;;;;;;;;8.74;57.55;96124.13;5070234;28;20010;-62
2022/11/27 11:18:45;;;;;;;;;;;;;;;8.71;57.29;96122.81;5062154;28;20365;-63
2022/11/27 11:21:20;;;;;;;;;;;;;;;8.65;56.96;96126.53;5068194;28;20017;-62
2022/11/27 11:23:52;;;;;;;;;;;;;;;8.28;57.46;96130.22;5070387;28;20465;-63
2022/11/27 11:26:20;;;;;;;;;;;;;;;8.67;57.56;96123.63;5069813;28;20017;-63
2022/11/27 11:28:48;;;;;;;;;;;;;;;8.82;57.59;96123.59;5071208;28;20486;-64
2022/11/27 11:31:15;;;;;;;;;;;;;;;8.92;56.57;96112.97;5069428;28;20017;-63
2022/11/27 11:33:50;;;;;;;;;;;;;;;8.97;56.33;96112.16;5071680;28;20847;-62
2022/11/27 11:36:15;;;;;;;;;;;;;;;8.96;56.41;96115.88;5069737;28;20056;-62
2022/11/27 11:38:43;;;;;;;;;;;;;;;9.07;55.60;96109.47;5071497;28;20045;-62
2022/11/27 11:41:08;;;;;;;;;;;;;;;8.77;54.85;96113.78;5069860;28;20021;-62
2022/11/27 11:43:35;;;;;;;;;;;;;;;7.82;58.61;96106.31;5071255;28;20108;-62
2022/11/27 11:46:07;;;;;;;;;;;;;;;7.20;60.65;96112.47;5069980;28;20001;-63
2022/11/27 11:48:32;;;;;;;;;;;;;;;7.22;61.08;96115.69;5069887;28;20010;-63
2022/11/27 11:51:06;;;;;;;;;;;;;;;7.34;60.44;96118.09;5069738;28;20027;-62
2022/11/27 11:53:34;;;;;;;;;;;;;;;7.40;60.50;96114.41;5069514;28;20487;-62
2022/11/27 11:56:05;;;;;;;;;;;;;;;7.30;61.36;96117.81;5070528;28;20007;-62
2022/11/27 11:58:36;;;;;;;;;;;;;;;6.43;62.25;96121.81;5069704;28;20493;-62
2022/11/27 12:01:14;;;;;;;;;;;;;;;6.09;64.09;96116.00;5069486;28;20013;-62
2022/11/27 12:03:55;;;;;;;;;;;;;;;5.89;65.49;96121.88;5070968;28;20005;-63
2022/11/27 12:06:26;;;;;;;;;;;;;;;5.87;62.96;96055.28;5067740;28;20099;-62
2022/11/27 12:09:07;;;;;;;;;;;;;;;6.94;62.21;96100.97;5069160;28;20009;-63
2022/11/27 12:11:38;;;;;;;;;;;;;;;5.47;64.99;96101.38;5070459;28;20009;-62
2022/11/27 12:14:13;;;;;;;;;;;;;;;5.69;64.39;96095.28;5067168;28;20432;-63
2022/11/27 12:16:54;;;;;;;;;;;;;;;6.39;63.83;96088.22;5070265;28;20392;-62
2022/11/27 12:19:32;;;;;;;;;;;;;;;6.28;63.01;96097.13;5069413;28;20071;-63
2022/11/27 12:22:03;;;;;;;;;;;;;;;6.97;62.42;96091.75;5064590;28;20063;-62
2022/11/27 12:24:37;;;;;;;;;;;;;;;7.40;61.10;96087.16;5066488;28;20028;-62
2022/11/27 12:27:22;;;;;;;;;;;;;;;7.21;59.98;96081.53;5068888;28;20013;-62
2022/11/27 12:30:01;;;;;;;;;;;;;;;7.77;59.59;96071.06;5058318;28;20060;-62
2022/11/27 12:32:43;;;;;;;;;;;;;;;7.37;58.89;96069.13;5067670;28;20066;-61
2022/11/27 12:35:21;;;;;;;;;;;;;;;6.63;61.51;96070.94;5066376;28;20411;-64
2022/11/27 12:37:58;;;;;;;;;;;;;;;7.50;59.95;96066.00;5069080;28;20527;-62
2022/11/27 12:40:30;;;;;;;;;;;;;;;7.26;59.24;95979.13;5068778;28;20024;-62
2022/11/27 12:43:03;;;;;;;;;;;;;;;7.44;59.80;96056.47;5068090;28;20009;-62
2022/11/27 12:45:33;;;;;;;;;;;;;;;7.65;58.94;96060.75;5066689;28;19998;-62
2022/11/27 12:48:06;;;;;;;;;;;;;;;8.12;58.40;96051.75;5068966;28;20067;-62
2022/11/27 12:50:35;;;;;;;;;;;;;;;8.02;58.32;96054.41;5070155;28;20001;-62
2022/11/27 12:53:18;;;;;;;;;;;;;;;7.95;57.75;96043.28;5068773;28;20127;-62
2022/11/27 12:55:57;;;;;;;;;;;;;;;7.51;58.77;96041.13;5069204;28;20500;-64
2022/11/27 12:58:27;;;;;;;;;;;;;;;7.34;58.93;96029.97;5068663;28;20009;-62
2022/11/27 13:01:00;;;;;;;;;;;;;;;7.30;59.75;96032.34;5068282;28;20032;-65
2022/11/27 13:03:33;;;;;;;;;;;;;;;7.72;58.86;96023.41;5069884;28;20009;-62